sensor_id;sensor_type;location;lat;lon;timestamp;pressure;altitude;pressure_sealevel;temperature;humidity
10464;BME280;5279;42.048;24.638;2024-02-23T00:01:50;97355.41;;;6.67;87.19
10464;BME280;5279;42.048;24.638;2024-02-23T00:04:17;97348.69;;;6.74;86.58
10464;BME280;5279;42.048;24.638;2024-02-23T00:06:44;97344.59;;;6.81;87.06
10464;BME280;5279;42.048;24.638;2024-02-23T00:09:11;97358.81;;;6.78;87.84
10464;BME280;5279;42.048;24.638;2024-02-23T00:11:39;97358.09;;;6.55;86.13
10464;BME280;5279;42.048;24.638;2024-02-23T00:14:09;97347.56;;;6.55;88.80
10464;BME280;5279;42.048;24.638;2024-02-23T00:16:39;97345.69;;;6.46;91.61
10464;BME280;5279;42.048;24.638;2024-02-23T00:19:07;97345.88;;;6.54;91.77
10464;BME280;5279;42.048;24.638;2024-02-23T00:21:34;97344.94;;;6.55;91.99
10464;BME280;5279;42.048;24.638;2024-02-23T00:24:01;97342.75;;;6.60;92.37
10464;BME280;5279;42.048;24.638;2024-02-23T00:26:27;97344.66;;;6.38;90.45
10464;BME280;5279;42.048;24.638;2024-02-23T00:28:55;97326.38;;;6.25;92.79
10464;BME280;5279;42.048;24.638;2024-02-23T00:31:21;97332.69;;;6.34;94.70
10464;BME280;5279;42.048;24.638;2024-02-23T00:33:49;97319.78;;;6.31;94.64
10464;BME280;5279;42.048;24.638;2024-02-23T00:36:16;97317.50;;;6.37;95.31
10464;BME280;5279;42.048;24.638;2024-02-23T00:38:43;97320.63;;;6.20;95.23
10464;BME280;5279;42.048;24.638;2024-02-23T00:41:10;97314.38;;;6.32;95.12
10464;BME280;5279;42.048;24.638;2024-02-23T00:43:40;97309.13;;;6.32;96.55
10464;BME280;5279;42.048;24.638;2024-02-23T00:46:07;97318.34;;;6.38;95.69
10464;BME280;5279;42.048;24.638;2024-02-23T00:48:34;97305.69;;;6.32;94.69
10464;BME280;5279;42.048;24.638;2024-02-23T00:51:03;97319.75;;;5.99;95.31
10464;BME280;5279;42.048;24.638;2024-02-23T00:53:30;97307.44;;;5.99;97.70
10464;BME280;5279;42.048;24.638;2024-02-23T00:55:58;97309.91;;;6.12;98.87
10464;BME280;5279;42.048;24.638;2024-02-23T00:58:25;97308.81;;;6.26;94.95
10464;BME280;5279;42.048;24.638;2024-02-23T01:00:51;97308.47;;;6.19;95.37
10464;BME280;5279;42.048;24.638;2024-02-23T01:03:18;97305.25;;;6.16;97.10
10464;BME280;5279;42.048;24.638;2024-02-23T01:05:45;97310.41;;;6.06;97.94
10464;BME280;5279;42.048;24.638;2024-02-23T01:08:13;97295.72;;;6.03;99.85
10464;BME280;5279;42.048;24.638;2024-02-23T01:10:40;97302.78;;;5.81;100.00
10464;BME280;5279;42.048;24.638;2024-02-23T01:13:06;97304.22;;;5.96;100.00
10464;BME280;5279;42.048;24.638;2024-02-23T01:15:33;97292.94;;;6.05;100.00
10464;BME280;5279;42.048;24.638;2024-02-23T01:18:00;97273.78;;;6.14;100.00
10464;BME280;5279;42.048;24.638;2024-02-23T01:20:27;97288.91;;;6.01;98.41
10464;BME280;5279;42.048;24.638;2024-02-23T01:22:54;97265.44;;;6.09;98.64
10464;BME280;5279;42.048;24.638;2024-02-23T01:25:22;97278.28;;;6.23;98.52
10464;BME280;5279;42.048;24.638;2024-02-23T01:27:49;97280.09;;;5.80;97.82
10464;BME280;5279;42.048;24.638;2024-02-23T01:30:15;97272.66;;;5.85;100.00
10464;BME280;5279;42.048;24.638;2024-02-23T01:32:42;97280.09;;;5.80;100.00
10464;BME280;5279;42.048;24.638;2024-02-23T01:35:09;97274.13;;;5.89;100.00
10464;BME280;5279;42.048;24.638;2024-02-23T01:37:35;97286.41;;;5.99;100.00
10464;BME280;5279;42.048;24.638;2024-02-23T01:40:03;97285.91;;;6.05;98.68
10464;BME280;5279;42.048;24.638;2024-02-23T01:42:31;97299.19;;;6.04;96.58
10464;BME280;5279;42.048;24.638;2024-02-23T01:44:58;97290.31;;;6.05;97.06
10464;BME280;5279;42.048;24.638;2024-02-23T01:47:25;97288.44;;;5.96;98.57
10464;BME280;5279;42.048;24.638;2024-02-23T01:49:54;97290.59;;;5.91;98.46
10464;BME280;5279;42.048;24.638;2024-02-23T01:52:22;97288.94;;;5.79;100.00
10464;BME280;5279;42.048;24.638;2024-02-23T01:54:49;97281.75;;;5.81;100.00
10464;BME280;5279;42.048;24.638;2024-02-23T01:57:16;97276.66;;;5.68;100.00
10464;BME280;5279;42.048;24.638;2024-02-23T01:59:45;97268.41;;;5.73;100.00
10464;BME280;5279;42.048;24.638;2024-02-23T02:02:11;97277.47;;;5.69;100.00
10464;BME280;5279;42.048;24.638;2024-02-23T02:04:38;97268.88;;;5.67;100.00
10464;BME280;5279;42.048;24.638;2024-02-23T02:07:05;97273.91;;;5.70;100.00
10464;BME280;5279;42.048;24.638;2024-02-23T02:09:32;97256.63;;;5.56;100.00
10464;BME280;5279;42.048;24.638;2024-02-23T02:11:59;97252.16;;;5.57;100.00
10464;BME280;5279;42.048;24.638;2024-02-23T02:14:25;97268.47;;;5.28;100.00
10464;BME280;5279;42.048;24.638;2024-02-23T02:16:56;97264.13;;;5.38;100.00
10464;BME280;5279;42.048;24.638;2024-02-23T02:19:23;97262.50;;;5.37;100.00
10464;BME280;5279;42.048;24.638;2024-02-23T02:21:50;97259.84;;;5.48;100.00
10464;BME280;5279;42.048;24.638;2024-02-23T02:24:16;97264.13;;;5.61;100.00
10464;BME280;5279;42.048;24.638;2024-02-23T02:26:42;97267.94;;;5.68;100.00
10464;BME280;5279;42.048;24.638;2024-02-23T02:29:11;97270.56;;;5.68;100.00
10464;BME280;5279;42.048;24.638;2024-02-23T02:31:38;97262.53;;;5.69;100.00
10464;BME280;5279;42.048;24.638;2024-02-23T02:34:06;97265.16;;;5.80;100.00
10464;BME280;5279;42.048;24.638;2024-02-23T02:36:33;97263.88;;;5.86;100.00
10464;BME280;5279;42.048;24.638;2024-02-23T02:38:59;97269.13;;;5.86;100.00
10464;BME280;5279;42.048;24.638;2024-02-23T02:41:28;97259.06;;;5.80;100.00
10464;BME280;5279;42.048;24.638;2024-02-23T02:43:55;97262.66;;;5.79;100.00
10464;BME280;5279;42.048;24.638;2024-02-23T02:46:22;97276.25;;;5.84;100.00
10464;BME280;5279;42.048;24.638;2024-02-23T02:48:49;97268.28;;;5.85;100.00
10464;BME280;5279;42.048;24.638;2024-02-23T02:51:17;97265.72;;;5.84;100.00
10464;BME280;5279;42.048;24.638;2024-02-23T02:53:44;97263.63;;;5.89;100.00
10464;BME280;5279;42.048;24.638;2024-02-23T02:56:11;97275.34;;;5.74;100.00
10464;BME280;5279;42.048;24.638;2024-02-23T02:58:37;97272.25;;;5.58;100.00
10464;BME280;5279;42.048;24.638;2024-02-23T03:01:04;97267.00;;;5.46;100.00
10464;BME280;5279;42.048;24.638;2024-02-23T03:03:31;97267.13;;;5.45;100.00
10464;BME280;5279;42.048;24.638;2024-02-23T03:05:57;97266.91;;;5.37;100.00
10464;BME280;5279;42.048;24.638;2024-02-23T03:08:26;97267.75;;;5.37;100.00
10464;BME280;5279;42.048;24.638;2024-02-23T03:10:52;97282.31;;;5.30;100.00
10464;BME280;5279;42.048;24.638;2024-02-23T03:13:19;97274.44;;;5.19;100.00
10464;BME280;5279;42.048;24.638;2024-02-23T03:15:46;97273.97;;;5.25;100.00
10464;BME280;5279;42.048;24.638;2024-02-23T03:18:13;97275.59;;;5.26;100.00
10464;BME280;5279;42.048;24.638;2024-02-23T03:20:40;97274.19;;;5.22;100.00
10464;BME280;5279;42.048;24.638;2024-02-23T03:23:07;97279.91;;;5.38;100.00
10464;BME280;5279;42.048;24.638;2024-02-23T03:25:35;97271.56;;;5.33;100.00
10464;BME280;5279;42.048;24.638;2024-02-23T03:28:02;97277.06;;;5.30;100.00
10464;BME280;5279;42.048;24.638;2024-02-23T03:30:29;97292.09;;;5.17;100.00
10464;BME280;5279;42.048;24.638;2024-02-23T03:32:56;97271.06;;;5.17;100.00
10464;BME280;5279;42.048;24.638;2024-02-23T03:35:22;97285.66;;;5.10;100.00
10464;BME280;5279;42.048;24.638;2024-02-23T03:37:49;97280.97;;;5.14;100.00
10464;BME280;5279;42.048;24.638;2024-02-23T03:40:16;97284.06;;;5.08;100.00
10464;BME280;5279;42.048;24.638;2024-02-23T03:42:45;97286.59;;;5.20;100.00
10464;BME280;5279;42.048;24.638;2024-02-23T03:45:12;97301.41;;;5.21;100.00
10464;BME280;5279;42.048;24.638;2024-02-23T03:47:39;97291.63;;;5.01;100.00
10464;BME280;5279;42.048;24.638;2024-02-23T03:50:06;97285.06;;;5.07;100.00
10464;BME280;5279;42.048;24.638;2024-02-23T03:52:33;97299.03;;;5.07;100.00
10464;BME280;5279;42.048;24.638;2024-02-23T03:55:00;97281.22;;;5.11;100.00
10464;BME280;5279;42.048;24.638;2024-02-23T03:57:29;97295.06;;;4.90;100.00
10464;BME280;5279;42.048;24.638;2024-02-23T03:59:57;97291.94;;;4.85;100.00
10464;BME280;5279;42.048;24.638;2024-02-23T04:02:23;97291.09;;;4.74;100.00
10464;BME280;5279;42.048;24.638;2024-02-23T04:04:50;97287.25;;;4.67;100.00
10464;BME280;5279;42.048;24.638;2024-02-23T04:07:17;97290.81;;;4.66;100.00
10464;BME280;5279;42.048;24.638;2024-02-23T04:09:44;97297.13;;;4.63;100.00
10464;BME280;5279;42.048;24.638;2024-02-23T04:12:10;97287.97;;;4.69;100.00
10464;BME280;5279;42.048;24.638;2024-02-23T04:14:47;97282.25;;;4.64;100.00
10464;BME280;5279;42.048;24.638;2024-02-23T04:17:15;97284.38;;;4.59;100.00
10464;BME280;5279;42.048;24.638;2024-02-23T04:19:42;97290.31;;;4.50;100.00
10464;BME280;5279;42.048;24.638;2024-02-23T04:22:09;97287.19;;;4.45;100.00
10464;BME280;5279;42.048;24.638;2024-02-23T04:24:36;97289.78;;;4.33;100.00
10464;BME280;5279;42.048;24.638;2024-02-23T04:27:04;97285.91;;;4.15;100.00
10464;BME280;5279;42.048;24.638;2024-02-23T04:29:31;97285.41;;;4.10;100.00
10464;BME280;5279;42.048;24.638;2024-02-23T04:31:58;97281.59;;;4.14;100.00
10464;BME280;5279;42.048;24.638;2024-02-23T04:34:27;97288.53;;;3.92;100.00
10464;BME280;5279;42.048;24.638;2024-02-23T04:36:54;97288.94;;;3.98;100.00
10464;BME280;5279;42.048;24.638;2024-02-23T04:39:21;97297.72;;;3.97;100.00
10464;BME280;5279;42.048;24.638;2024-02-23T04:41:47;97284.72;;;3.96;100.00
10464;BME280;5279;42.048;24.638;2024-02-23T04:44:14;97289.06;;;4.08;100.00
10464;BME280;5279;42.048;24.638;2024-02-23T04:46:41;97276.25;;;4.16;100.00
10464;BME280;5279;42.048;24.638;2024-02-23T04:49:08;97294.00;;;4.12;100.00
10464;BME280;5279;42.048;24.638;2024-02-23T04:51:38;97283.16;;;4.17;100.00
10464;BME280;5279;42.048;24.638;2024-02-23T04:54:05;97293.81;;;4.26;100.00
10464;BME280;5279;42.048;24.638;2024-02-23T04:56:32;97298.75;;;4.07;100.00
10464;BME280;5279;42.048;24.638;2024-02-23T04:58:59;97297.09;;;4.17;100.00
10464;BME280;5279;42.048;24.638;2024-02-23T05:01:26;97293.88;;;4.14;100.00
10464;BME280;5279;42.048;24.638;2024-02-23T05:03:53;97294.16;;;4.22;100.00
10464;BME280;5279;42.048;24.638;2024-02-23T05:06:19;97305.94;;;4.16;100.00
10464;BME280;5279;42.048;24.638;2024-02-23T05:08:47;97310.88;;;4.08;100.00
10464;BME280;5279;42.048;24.638;2024-02-23T05:11:14;97298.97;;;4.04;100.00
10464;BME280;5279;42.048;24.638;2024-02-23T05:13:41;97303.38;;;4.04;100.00
10464;BME280;5279;42.048;24.638;2024-02-23T05:16:08;97311.31;;;4.02;100.00
10464;BME280;5279;42.048;24.638;2024-02-23T05:18:34;97301.63;;;4.15;100.00
10464;BME280;5279;42.048;24.638;2024-02-23T05:21:01;97311.66;;;4.21;100.00
10464;BME280;5279;42.048;24.638;2024-02-23T05:23:28;97313.56;;;4.19;100.00
10464;BME280;5279;42.048;24.638;2024-02-23T05:25:56;97313.56;;;4.19;100.00
10464;BME280;5279;42.048;24.638;2024-02-23T05:28:23;97317.31;;;4.28;100.00
10464;BME280;5279;42.048;24.638;2024-02-23T05:30:49;97314.09;;;4.35;100.00
10464;BME280;5279;42.048;24.638;2024-02-23T05:33:16;97326.38;;;4.59;100.00
10464;BME280;5279;42.048;24.638;2024-02-23T05:35:46;97317.53;;;4.60;100.00
10464;BME280;5279;42.048;24.638;2024-02-23T05:38:14;97318.75;;;4.67;100.00
10464;BME280;5279;42.048;24.638;2024-02-23T05:40:40;97316.06;;;4.90;100.00
10464;BME280;5279;42.048;24.638;2024-02-23T05:43:08;97316.91;;;5.02;100.00
10464;BME280;5279;42.048;24.638;2024-02-23T05:45:35;97324.56;;;5.27;100.00
10464;BME280;5279;42.048;24.638;2024-02-23T05:48:03;97328.50;;;5.55;100.00
10464;BME280;5279;42.048;24.638;2024-02-23T05:50:58;97328.50;;;5.77;100.00
10464;BME280;5279;42.048;24.638;2024-02-23T05:53:24;97321.56;;;5.98;100.00
10464;BME280;5279;42.048;24.638;2024-02-23T05:55:51;97328.78;;;6.17;100.00
10464;BME280;5279;42.048;24.638;2024-02-23T05:58:19;97338.53;;;6.37;100.00
10464;BME280;5279;42.048;24.638;2024-02-23T06:00:46;97336.09;;;6.56;96.93
10464;BME280;5279;42.048;24.638;2024-02-23T06:03:13;97339.56;;;6.78;93.53
10464;BME280;5279;42.048;24.638;2024-02-23T06:05:39;97341.94;;;6.81;94.64
10464;BME280;5279;42.048;24.638;2024-02-23T06:08:06;97346.81;;;7.06;92.27
10464;BME280;5279;42.048;24.638;2024-02-23T06:10:33;97344.31;;;7.25;93.39
10464;BME280;5279;42.048;24.638;2024-02-23T06:13:00;97351.94;;;7.28;87.54
10464;BME280;5279;42.048;24.638;2024-02-23T06:15:28;97362.22;;;7.31;87.18
10464;BME280;5279;42.048;24.638;2024-02-23T06:17:58;97363.97;;;7.51;87.71
10464;BME280;5279;42.048;24.638;2024-02-23T06:23:30;97371.34;;;7.78;83.59
10464;BME280;5279;42.048;24.638;2024-02-23T06:25:57;97378.31;;;7.89;83.77
10464;BME280;5279;42.048;24.638;2024-02-23T06:28:24;97376.81;;;7.96;82.45
10464;BME280;5279;42.048;24.638;2024-02-23T06:30:52;97368.44;;;8.31;81.60
10464;BME280;5279;42.048;24.638;2024-02-23T06:33:18;97373.22;;;8.65;80.15
10464;BME280;5279;42.048;24.638;2024-02-23T06:35:45;97363.22;;;8.78;78.17
10464;BME280;5279;42.048;24.638;2024-02-23T06:38:12;97370.44;;;9.05;76.63
10464;BME280;5279;42.048;24.638;2024-02-23T06:40:39;97372.38;;;9.13;75.41
10464;BME280;5279;42.048;24.638;2024-02-23T06:43:05;97370.44;;;9.15;75.65
10464;BME280;5279;42.048;24.638;2024-02-23T06:45:32;97366.78;;;9.16;75.55
10464;BME280;5279;42.048;24.638;2024-02-23T06:48:00;97374.44;;;9.28;76.11
10464;BME280;5279;42.048;24.638;2024-02-23T06:50:27;97384.25;;;9.55;73.78
10464;BME280;5279;42.048;24.638;2024-02-23T06:52:53;97381.94;;;9.79;72.51
10464;BME280;5279;42.048;24.638;2024-02-23T06:55:20;97385.50;;;9.98;71.43
10464;BME280;5279;42.048;24.638;2024-02-23T06:57:47;97375.53;;;10.19;70.67
10464;BME280;5279;42.048;24.638;2024-02-23T07:00:14;97358.63;;;10.47;70.13
10464;BME280;5279;42.048;24.638;2024-02-23T07:02:41;97372.78;;;10.73;67.88
10464;BME280;5279;42.048;24.638;2024-02-23T07:05:09;97375.25;;;10.84;66.87
10464;BME280;5279;42.048;24.638;2024-02-23T07:07:36;97375.91;;;11.04;66.96
10464;BME280;5279;42.048;24.638;2024-02-23T07:10:06;97380.81;;;11.17;65.67
10464;BME280;5279;42.048;24.638;2024-02-23T07:12:33;97372.09;;;11.24;64.60
10464;BME280;5279;42.048;24.638;2024-02-23T07:14:59;97369.19;;;11.61;64.19
10464;BME280;5279;42.048;24.638;2024-02-23T07:17:27;97370.75;;;11.97;62.77
10464;BME280;5279;42.048;24.638;2024-02-23T07:19:54;97373.41;;;11.97;61.37
10464;BME280;5279;42.048;24.638;2024-02-23T07:22:29;97368.53;;;12.19;60.88
10464;BME280;5279;42.048;24.638;2024-02-23T07:24:56;97362.94;;;12.38;59.78
10464;BME280;5279;42.048;24.638;2024-02-23T07:27:23;97357.66;;;12.54;58.90
10464;BME280;5279;42.048;24.638;2024-02-23T07:29:49;97358.69;;;12.61;57.20
10464;BME280;5279;42.048;24.638;2024-02-23T07:32:16;97358.03;;;12.75;58.59
10464;BME280;5279;42.048;24.638;2024-02-23T07:34:43;97358.41;;;12.96;56.37
10464;BME280;5279;42.048;24.638;2024-02-23T07:37:09;97351.72;;;12.92;56.23
10464;BME280;5279;42.048;24.638;2024-02-23T07:39:38;97349.47;;;13.22;56.57
10464;BME280;5279;42.048;24.638;2024-02-23T07:42:05;97345.41;;;13.58;55.68
10464;BME280;5279;42.048;24.638;2024-02-23T07:44:33;97351.75;;;13.57;54.14
10464;BME280;5279;42.048;24.638;2024-02-23T07:47:00;97348.63;;;13.92;53.86
10464;BME280;5279;42.048;24.638;2024-02-23T07:49:28;97338.50;;;14.27;53.31
10464;BME280;5279;42.048;24.638;2024-02-23T07:51:54;97345.16;;;14.31;53.56
10464;BME280;5279;42.048;24.638;2024-02-23T07:54:21;97343.50;;;14.30;51.83
10464;BME280;5279;42.048;24.638;2024-02-23T07:56:49;97330.78;;;14.48;50.97
10464;BME280;5279;42.048;24.638;2024-02-23T07:59:16;97335.66;;;14.67;51.87
10464;BME280;5279;42.048;24.638;2024-02-23T08:01:43;97338.69;;;14.87;51.25
10464;BME280;5279;42.048;24.638;2024-02-23T08:04:09;97344.09;;;14.78;52.10
10464;BME280;5279;42.048;24.638;2024-02-23T08:06:36;97339.75;;;14.77;52.35
10464;BME280;5279;42.048;24.638;2024-02-23T08:09:03;97337.81;;;14.94;53.35
10464;BME280;5279;42.048;24.638;2024-02-23T08:11:31;97338.97;;;15.14;52.42
10464;BME280;5279;42.048;24.638;2024-02-23T08:13:59;97338.63;;;15.17;51.49
10464;BME280;5279;42.048;24.638;2024-02-23T08:16:26;97332.63;;;15.15;52.39
10464;BME280;5279;42.048;24.638;2024-02-23T08:18:53;97333.16;;;15.33;51.57
10464;BME280;5279;42.048;24.638;2024-02-23T08:21:20;97338.38;;;15.50;50.27
10464;BME280;5279;42.048;24.638;2024-02-23T08:23:47;97333.94;;;15.57;49.92
10464;BME280;5279;42.048;24.638;2024-02-23T08:26:13;97336.81;;;15.55;50.63
10464;BME280;5279;42.048;24.638;2024-02-23T08:28:40;97325.88;;;15.65;50.05
10464;BME280;5279;42.048;24.638;2024-02-23T08:31:08;97333.97;;;15.86;49.47
10464;BME280;5279;42.048;24.638;2024-02-23T08:33:35;97330.47;;;16.00;49.01
10464;BME280;5279;42.048;24.638;2024-02-23T08:36:02;97330.66;;;16.13;48.73
10464;BME280;5279;42.048;24.638;2024-02-23T08:38:30;97339.19;;;16.38;48.67
10464;BME280;5279;42.048;24.638;2024-02-23T08:40:57;97330.22;;;16.46;47.38
10464;BME280;5279;42.048;24.638;2024-02-23T08:43:24;97331.56;;;16.20;47.77
10464;BME280;5279;42.048;24.638;2024-02-23T08:45:51;97333.69;;;16.10;48.16
10464;BME280;5279;42.048;24.638;2024-02-23T08:48:19;97335.25;;;16.19;48.63
10464;BME280;5279;42.048;24.638;2024-02-23T08:50:46;97332.09;;;16.30;47.79
10464;BME280;5279;42.048;24.638;2024-02-23T08:53:12;97326.75;;;16.30;47.95
10464;BME280;5279;42.048;24.638;2024-02-23T08:55:39;97330.78;;;16.56;47.40
10464;BME280;5279;42.048;24.638;2024-02-23T08:58:06;97329.84;;;16.49;47.69
10464;BME280;5279;42.048;24.638;2024-02-23T09:00:33;97332.06;;;16.60;47.94
10464;BME280;5279;42.048;24.638;2024-02-23T09:02:59;97332.13;;;16.81;47.25
10464;BME280;5279;42.048;24.638;2024-02-23T09:05:27;97327.16;;;16.99;46.34
10464;BME280;5279;42.048;24.638;2024-02-23T09:07:54;97325.44;;;17.40;45.51
10464;BME280;5279;42.048;24.638;2024-02-23T09:10:21;97319.63;;;17.86;44.39
10464;BME280;5279;42.048;24.638;2024-02-23T09:12:48;97311.34;;;18.63;42.90
10464;BME280;5279;42.048;24.638;2024-02-23T09:15:14;97308.50;;;18.84;40.75
10464;BME280;5279;42.048;24.638;2024-02-23T09:17:41;97311.06;;;19.44;41.03
10464;BME280;5279;42.048;24.638;2024-02-23T09:20:09;97308.31;;;19.84;39.27
10464;BME280;5279;42.048;24.638;2024-02-23T09:22:37;97301.19;;;20.73;38.49
10464;BME280;5279;42.048;24.638;2024-02-23T09:25:06;97303.09;;;22.03;35.71
10464;BME280;5279;42.048;24.638;2024-02-23T09:27:33;97293.19;;;23.11;34.20
10464;BME280;5279;42.048;24.638;2024-02-23T09:30:02;97293.53;;;23.90;31.74
10464;BME280;5279;42.048;24.638;2024-02-23T09:32:29;97288.94;;;24.26;31.37
10464;BME280;5279;42.048;24.638;2024-02-23T09:34:56;97282.78;;;24.42;30.74
10464;BME280;5279;42.048;24.638;2024-02-23T09:37:23;97287.47;;;25.48;30.01
10464;BME280;5279;42.048;24.638;2024-02-23T09:39:51;97289.94;;;25.99;28.35
10464;BME280;5279;42.048;24.638;2024-02-23T09:42:18;97269.63;;;26.67;27.66
10464;BME280;5279;42.048;24.638;2024-02-23T09:44:51;97267.31;;;27.02;27.18
10464;BME280;5279;42.048;24.638;2024-02-23T09:47:24;97273.94;;;27.11;27.15
10464;BME280;5279;42.048;24.638;2024-02-23T09:49:51;97268.13;;;26.33;27.45
10464;BME280;5279;42.048;24.638;2024-02-23T09:52:20;97271.97;;;27.02;27.34
10464;BME280;5279;42.048;24.638;2024-02-23T09:54:47;97260.72;;;27.52;26.51
10464;BME280;5279;42.048;24.638;2024-02-23T09:57:16;97263.22;;;28.00;26.16
10464;BME280;5279;42.048;24.638;2024-02-23T09:59:44;97261.28;;;28.33;25.77
10464;BME280;5279;42.048;24.638;2024-02-23T10:02:15;97252.81;;;28.34;25.50
10464;BME280;5279;42.048;24.638;2024-02-23T10:04:43;97250.63;;;29.08;24.50
10464;BME280;5279;42.048;24.638;2024-02-23T10:07:10;97256.66;;;29.41;24.36
10464;BME280;5279;42.048;24.638;2024-02-23T10:09:40;97266.50;;;29.57;23.88
10464;BME280;5279;42.048;24.638;2024-02-23T10:12:08;97264.84;;;29.96;24.01
10464;BME280;5279;42.048;24.638;2024-02-23T10:14:36;97250.03;;;30.17;22.98
10464;BME280;5279;42.048;24.638;2024-02-23T10:17:03;97266.47;;;29.77;22.90
10464;BME280;5279;42.048;24.638;2024-02-23T10:19:29;97256.34;;;30.08;23.39
10464;BME280;5279;42.048;24.638;2024-02-23T10:21:57;97243.44;;;30.33;22.48
10464;BME280;5279;42.048;24.638;2024-02-23T10:24:23;97255.00;;;30.00;23.51
10464;BME280;5279;42.048;24.638;2024-02-23T10:26:51;97253.34;;;30.04;23.15
10464;BME280;5279;42.048;24.638;2024-02-23T10:29:17;97233.91;;;30.11;23.23
10464;BME280;5279;42.048;24.638;2024-02-23T10:31:46;97240.97;;;30.86;22.38
10464;BME280;5279;42.048;24.638;2024-02-23T10:34:18;97238.44;;;30.51;22.64
10464;BME280;5279;42.048;24.638;2024-02-23T10:36:46;97226.81;;;31.23;21.39
10464;BME280;5279;42.048;24.638;2024-02-23T10:39:16;97228.91;;;31.70;21.07
10464;BME280;5279;42.048;24.638;2024-02-23T10:41:47;97226.88;;;31.52;21.03
10464;BME280;5279;42.048;24.638;2024-02-23T10:44:18;97220.59;;;32.09;20.31
10464;BME280;5279;42.048;24.638;2024-02-23T10:46:47;97209.66;;;32.27;20.41
10464;BME280;5279;42.048;24.638;2024-02-23T10:49:15;97207.00;;;31.93;20.42
10464;BME280;5279;42.048;24.638;2024-02-23T10:51:46;97202.84;;;31.72;21.09
10464;BME280;5279;42.048;24.638;2024-02-23T10:54:15;97193.91;;;31.62;20.88
10464;BME280;5279;42.048;24.638;2024-02-23T10:56:47;97196.50;;;32.48;20.16
10464;BME280;5279;42.048;24.638;2024-02-23T10:59:14;97187.16;;;33.10;19.61
10464;BME280;5279;42.048;24.638;2024-02-23T11:01:44;97188.78;;;32.74;19.75
10464;BME280;5279;42.048;24.638;2024-02-23T11:04:15;97184.00;;;33.17;19.55
10464;BME280;5279;42.048;24.638;2024-02-23T11:06:48;97185.72;;;32.75;19.77
10464;BME280;5279;42.048;24.638;2024-02-23T11:09:15;97185.75;;;33.45;19.38
10464;BME280;5279;42.048;24.638;2024-02-23T11:11:52;97172.81;;;34.05;18.88
10464;BME280;5279;42.048;24.638;2024-02-23T11:14:29;97171.22;;;34.31;18.89
10464;BME280;5279;42.048;24.638;2024-02-23T11:16:57;97172.53;;;34.20;18.61
10464;BME280;5279;42.048;24.638;2024-02-23T11:19:33;97167.31;;;34.05;18.57
10464;BME280;5279;42.048;24.638;2024-02-23T11:22:01;97165.91;;;34.98;18.20
10464;BME280;5279;42.048;24.638;2024-02-23T11:24:28;97176.19;;;33.88;18.82
10464;BME280;5279;42.048;24.638;2024-02-23T11:26:56;97168.16;;;34.96;18.30
10464;BME280;5279;42.048;24.638;2024-02-23T11:29:26;97157.84;;;34.38;18.46
10464;BME280;5279;42.048;24.638;2024-02-23T11:31:53;97151.78;;;35.35;17.88
10464;BME280;5279;42.048;24.638;2024-02-23T11:34:26;97151.94;;;34.94;17.87
10464;BME280;5279;42.048;24.638;2024-02-23T11:36:55;97157.91;;;35.10;17.94
10464;BME280;5279;42.048;24.638;2024-02-23T11:39:24;97148.88;;;34.46;18.14
10464;BME280;5279;42.048;24.638;2024-02-23T11:41:51;97151.97;;;34.81;18.36
10464;BME280;5279;42.048;24.638;2024-02-23T11:44:17;97149.22;;;34.81;17.93
10464;BME280;5279;42.048;24.638;2024-02-23T11:46:44;97158.75;;;34.97;17.91
10464;BME280;5279;42.048;24.638;2024-02-23T11:49:14;97149.44;;;35.82;17.01
10464;BME280;5279;42.048;24.638;2024-02-23T11:51:40;97149.91;;;36.80;16.13
10464;BME280;5279;42.048;24.638;2024-02-23T11:54:09;97157.44;;;37.05;16.30
10464;BME280;5279;42.048;24.638;2024-02-23T11:56:35;97151.22;;;36.74;16.30
10464;BME280;5279;42.048;24.638;2024-02-23T11:59:02;97151.38;;;38.01;15.73
10464;BME280;5279;42.048;24.638;2024-02-23T12:01:29;97146.88;;;38.25;15.07
10464;BME280;5279;42.048;24.638;2024-02-23T12:03:57;97144.03;;;38.34;15.24
10464;BME280;5279;42.048;24.638;2024-02-23T12:06:24;97146.69;;;39.22;14.40
10464;BME280;5279;42.048;24.638;2024-02-23T12:08:54;97141.53;;;39.65;14.44
10464;BME280;5279;42.048;24.638;2024-02-23T12:11:22;97137.19;;;40.01;14.07
10464;BME280;5279;42.048;24.638;2024-02-23T12:13:49;97130.84;;;39.43;14.49
10464;BME280;5279;42.048;24.638;2024-02-23T12:16:16;97130.88;;;38.60;14.73
10464;BME280;5279;42.048;24.638;2024-02-23T12:18:43;97114.25;;;37.55;15.61
10464;BME280;5279;42.048;24.638;2024-02-23T12:21:10;97124.84;;;38.38;15.02
10464;BME280;5279;42.048;24.638;2024-02-23T12:23:41;97120.47;;;37.99;15.17
10464;BME280;5279;42.048;24.638;2024-02-23T12:26:08;97116.88;;;38.36;15.12
10464;BME280;5279;42.048;24.638;2024-02-23T12:28:36;97105.91;;;38.10;15.44
10464;BME280;5279;42.048;24.638;2024-02-23T12:31:04;97115.00;;;39.11;14.87
10464;BME280;5279;42.048;24.638;2024-02-23T12:33:31;97111.06;;;39.90;14.25
10464;BME280;5279;42.048;24.638;2024-02-23T12:36:00;97090.63;;;39.49;14.39
10464;BME280;5279;42.048;24.638;2024-02-23T12:38:27;97092.91;;;39.92;13.99
10464;BME280;5279;42.048;24.638;2024-02-23T12:40:54;97092.53;;;39.57;14.40
10464;BME280;5279;42.048;24.638;2024-02-23T12:43:21;97088.44;;;40.24;13.72
10464;BME280;5279;42.048;24.638;2024-02-23T12:45:51;97099.06;;;38.66;14.63
10464;BME280;5279;42.048;24.638;2024-02-23T12:48:18;97095.16;;;38.17;15.12
10464;BME280;5279;42.048;24.638;2024-02-23T12:50:47;97077.94;;;36.67;15.88
10464;BME280;5279;42.048;24.638;2024-02-23T12:53:31;97064.91;;;36.94;15.85
10464;BME280;5279;42.048;24.638;2024-02-23T12:55:58;97079.25;;;37.68;16.15
10464;BME280;5279;42.048;24.638;2024-02-23T12:58:25;97078.94;;;38.28;15.42
10464;BME280;5279;42.048;24.638;2024-02-23T13:00:54;97084.88;;;38.18;15.32
10464;BME280;5279;42.048;24.638;2024-02-23T13:03:20;97066.69;;;38.58;15.17
10464;BME280;5279;42.048;24.638;2024-02-23T13:05:47;97058.78;;;38.90;14.97
10464;BME280;5279;42.048;24.638;2024-02-23T13:08:14;97077.31;;;39.75;14.20